GLD1287 SDXE-SDJO
Flight info
| Callsign | GLD1287 |
|---|---|
| Flight time | 0h 15m |
| Altitude | 9000 |
| Route | DCT ETEGO DCT SDJO 14 |
| Aircraft | TBM8/M-SDFGIRY/S |
Departure
| Time | 2026-05-06 16:41 |
|---|---|
| Airport | Chácara Serradinho Airport (SDXE) |
Arrival
| Time | 2026-05-06 16:56 |
|---|---|
| Airport | São Joaquim da Barra Airport (SDJO) |
| Time | Latitude | Longitude | Altitude | Speed | Heading |
|---|---|---|---|---|---|
| 2026-05-06 16:23 | -21.26747 | -48.35954 | 2108 ft | 0 kts | 36° |
| 2026-05-06 16:38 | -21.26743 | -48.35949 | 2097 ft | 3 kts | 71° |
| 2026-05-06 16:38 | -21.26759 | -48.35901 | 2088 ft | 12 kts | 133° |
| 2026-05-06 16:38 | -21.26782 | -48.35885 | 2088 ft | 4 kts | 150° |
| 2026-05-06 16:39 | -21.26783 | -48.35871 | 2088 ft | 1 kts | 47° |
| 2026-05-06 16:39 | -21.26782 | -48.35870 | 2088 ft | 0 kts | 35° |
| 2026-05-06 16:40 | -21.26647 | -48.35758 | 2092 ft | 56 kts | 38° |
| 2026-05-06 16:40 | -21.26190 | -48.35381 | 2092 ft | 108 kts | 38° |
| 2026-05-06 16:41 | -21.25532 | -48.34824 | 2358 ft | 130 kts | 41° |
| 2026-05-06 16:41 | -21.24791 | -48.34135 | 2625 ft | 158 kts | 43° |
| 2026-05-06 16:41 | -21.24008 | -48.33365 | 3406 ft | 143 kts | 45° |
| 2026-05-06 16:41 | -21.23286 | -48.32663 | 4121 ft | 143 kts | 44° |
| 2026-05-06 16:42 | -21.22548 | -48.31956 | 4806 ft | 143 kts | 44° |
| 2026-05-06 16:42 | -21.21813 | -48.31229 | 5468 ft | 145 kts | 46° |
| 2026-05-06 16:42 | -21.20915 | -48.30749 | 6192 ft | 152 kts | 3° |
| 2026-05-06 16:42 | -21.19913 | -48.31151 | 6868 ft | 157 kts | 333° |
| 2026-05-06 16:43 | -21.18941 | -48.31710 | 7506 ft | 159 kts | 337° |
| 2026-05-06 16:43 | -21.17929 | -48.32211 | 8167 ft | 162 kts | 339° |
| 2026-05-06 16:43 | -21.16935 | -48.32794 | 8825 ft | 166 kts | 324° |
| 2026-05-06 16:43 | -21.15948 | -48.33569 | 9091 ft | 193 kts | 336° |
| 2026-05-06 16:44 | -21.14545 | -48.33922 | 9091 ft | 222 kts | 357° |
| 2026-05-06 16:44 | -21.12929 | -48.34091 | 9102 ft | 243 kts | 355° |
| 2026-05-06 16:44 | -21.11203 | -48.34358 | 9107 ft | 257 kts | 353° |
| 2026-05-06 16:44 | -21.09406 | -48.34645 | 9104 ft | 265 kts | 354° |
| 2026-05-06 16:45 | -21.07562 | -48.34922 | 9101 ft | 270 kts | 354° |
| 2026-05-06 16:45 | -21.05696 | -48.35044 | 9104 ft | 268 kts | 7° |
| 2026-05-06 16:45 | -21.03903 | -48.34621 | 9103 ft | 267 kts | 21° |
| 2026-05-06 16:45 | -21.02257 | -48.33722 | 9104 ft | 266 kts | 36° |
| 2026-05-06 16:46 | -21.00862 | -48.32438 | 9104 ft | 264 kts | 45° |
| 2026-05-06 16:46 | -20.99508 | -48.31102 | 9103 ft | 265 kts | 44° |
| 2026-05-06 16:46 | -20.98138 | -48.29779 | 9100 ft | 265 kts | 44° |
| 2026-05-06 16:46 | -20.96777 | -48.28436 | 9103 ft | 266 kts | 44° |
| 2026-05-06 16:47 | -20.95413 | -48.27091 | 9100 ft | 267 kts | 44° |
| 2026-05-06 16:47 | -20.94043 | -48.25748 | 9101 ft | 267 kts | 44° |
| 2026-05-06 16:47 | -20.92671 | -48.24402 | 9100 ft | 268 kts | 44° |
| 2026-05-06 16:47 | -20.91297 | -48.23055 | 9101 ft | 268 kts | 44° |
| 2026-05-06 16:48 | -20.89917 | -48.21704 | 9100 ft | 269 kts | 44° |
| 2026-05-06 16:48 | -20.88543 | -48.20355 | 9098 ft | 268 kts | 44° |
| 2026-05-06 16:48 | -20.87166 | -48.19007 | 9099 ft | 268 kts | 44° |
| 2026-05-06 16:48 | -20.85811 | -48.17679 | 9099 ft | 267 kts | 44° |
| 2026-05-06 16:49 | -20.84420 | -48.16317 | 9101 ft | 267 kts | 44° |
| 2026-05-06 16:49 | -20.83067 | -48.14992 | 9102 ft | 267 kts | 44° |
| 2026-05-06 16:49 | -20.81698 | -48.13652 | 9101 ft | 267 kts | 44° |
| 2026-05-06 16:49 | -20.80329 | -48.12311 | 9100 ft | 267 kts | 44° |
| 2026-05-06 16:50 | -20.78958 | -48.10973 | 9102 ft | 267 kts | 44° |
| 2026-05-06 16:50 | -20.77588 | -48.09631 | 9098 ft | 268 kts | 44° |
| 2026-05-06 16:50 | -20.76215 | -48.08286 | 9099 ft | 268 kts | 44° |
| 2026-05-06 16:50 | -20.74839 | -48.06942 | 9103 ft | 268 kts | 44° |
| 2026-05-06 16:51 | -20.73462 | -48.05598 | 9104 ft | 269 kts | 44° |
| 2026-05-06 16:51 | -20.72080 | -48.04247 | 9101 ft | 268 kts | 44° |
| 2026-05-06 16:51 | -20.70704 | -48.02901 | 9104 ft | 268 kts | 44° |
| 2026-05-06 16:51 | -20.69329 | -48.01559 | 9106 ft | 268 kts | 44° |
| 2026-05-06 16:52 | -20.67952 | -48.00212 | 9105 ft | 268 kts | 44° |
| 2026-05-06 16:52 | -20.66572 | -47.98866 | 9096 ft | 269 kts | 44° |
| 2026-05-06 16:52 | -20.65227 | -47.97559 | 8745 ft | 239 kts | 44° |
| 2026-05-06 16:52 | -20.64094 | -47.96460 | 8262 ft | 208 kts | 45° |
| 2026-05-06 16:53 | -20.63063 | -47.95449 | 7639 ft | 195 kts | 45° |
| 2026-05-06 16:53 | -20.62086 | -47.94492 | 7013 ft | 187 kts | 44° |
| 2026-05-06 16:53 | -20.61152 | -47.93580 | 6406 ft | 176 kts | 45° |
| 2026-05-06 16:53 | -20.60286 | -47.92736 | 5766 ft | 157 kts | 44° |
| 2026-05-06 16:54 | -20.59519 | -47.91995 | 5126 ft | 142 kts | 45° |
| 2026-05-06 16:54 | -20.58817 | -47.91311 | 4513 ft | 138 kts | 44° |
| 2026-05-06 16:54 | -20.58084 | -47.90588 | 3874 ft | 147 kts | 44° |
| 2026-05-06 16:54 | -20.57589 | -47.89717 | 3600 ft | 128 kts | 76° |
| 2026-05-06 16:55 | -20.57457 | -47.88860 | 3584 ft | 106 kts | 89° |
| 2026-05-06 16:55 | -20.57607 | -47.88119 | 3332 ft | 107 kts | 108° |
| 2026-05-06 16:55 | -20.57903 | -47.87391 | 3013 ft | 105 kts | 112° |
| 2026-05-06 16:55 | -20.58181 | -47.86690 | 2794 ft | 99 kts | 112° |
| 2026-05-06 16:56 | -20.58475 | -47.86048 | 2532 ft | 94 kts | 114° |
| 2026-05-06 16:56 | -20.58794 | -47.85402 | 2332 ft | 104 kts | 115° |
| 2026-05-06 16:56 | -20.59112 | -47.84732 | 2131 ft | 97 kts | 116° |
| 2026-05-06 16:56 | -20.59381 | -47.84180 | 2108 ft | 49 kts | 117° |
| 2026-05-06 16:57 | -20.59421 | -47.84096 | 2109 ft | 3 kts | 118° |
| 2026-05-06 16:57 | -20.59425 | -47.84091 | 2109 ft | 1 kts | 154° |
| 2026-05-06 16:57 | -20.59431 | -47.84084 | 2109 ft | 2 kts | 90° |
| 2026-05-06 16:57 | -20.59415 | -47.84095 | 2109 ft | 10 kts | 291° |
| 2026-05-06 16:58 | -20.59375 | -47.84190 | 2107 ft | 18 kts | 297° |
| 2026-05-06 16:58 | -20.59346 | -47.84252 | 2107 ft | 6 kts | 296° |
| 2026-05-06 16:58 | -20.59332 | -47.84265 | 2107 ft | 5 kts | 350° |
| 2026-05-06 16:58 | -20.59298 | -47.84251 | 2106 ft | 6 kts | 25° |
| 2026-05-06 16:59 | -20.59253 | -47.84227 | 2104 ft | 6 kts | 30° |
| 2026-05-06 16:59 | -20.59232 | -47.84216 | 2104 ft | 4 kts | 28° |
| 2026-05-06 16:59 | -20.59227 | -47.84207 | 2106 ft | 1 kts | 88° |
| 2026-05-06 16:59 | -20.59227 | -47.84204 | 2105 ft | 0 kts | 117° |
| 2026-05-06 17:00 | -20.59228 | -47.84202 | 2106 ft | 0 kts | 118° |
| 2026-05-06 17:00 | -20.59231 | -47.84196 | 2102 ft | 0 kts | 118° |